Time,TemperatureF,DewpointF,PressureIn,WindDirection,WindDirectionDegrees,WindSpeedMPH,WindSpeedGustMPH,Humidity,HourlyPrecipIn,Conditions,Clouds,dailyrainin,SoftwareType,DateUTC
2013-02-20 00:05:00,38.3,34.2,29.79,WSW,248,0.0,0.7,85,0.00,,,0.00,WUHU216HW,2013-02-20 08:05:00,
2013-02-20 00:10:00,38.3,34.2,29.81,WSW,248,0.4,0.7,85,0.00,,,0.00,WUHU216HW,2013-02-20 08:10:00,
2013-02-20 00:15:00,38.3,34.2,29.80,WSW,248,0.0,0.4,85,0.00,,,0.00,WUHU216HW,2013-02-20 08:15:00,
2013-02-20 00:20:00,38.2,34.0,29.81,SW,225,0.0,0.0,85,0.00,,,0.00,WUHU216HW,2013-02-20 08:20:00,
2013-02-20 00:25:00,38.2,34.3,29.82,WSW,248,0.4,0.4,86,0.00,,,0.00,WUHU216HW,2013-02-20 08:25:00,
2013-02-20 00:30:00,38.2,34.3,29.81,West,270,0.4,1.1,86,0.00,,,0.00,WUHU216HW,2013-02-20 08:30:00,
2013-02-20 00:35:00,38.2,34.3,29.82,West,270,0.7,1.1,86,0.00,,,0.00,WUHU216HW,2013-02-20 08:35:00,
2013-02-20 00:40:00,38.2,34.3,29.83,West,270,1.1,1.3,86,0.00,,,0.00,WUHU216HW,2013-02-20 08:40:00,
2013-02-20 00:45:00,38.2,34.3,29.82,WSW,248,0.4,1.3,86,0.00,,,0.00,WUHU216HW,2013-02-20 08:45:00,
2013-02-20 00:50:00,38.2,34.3,29.82,West,270,0.7,1.1,86,0.00,,,0.00,WUHU216HW,2013-02-20 08:50:00,
2013-02-20 00:55:00,38.2,34.3,29.83,WSW,248,0.7,1.1,86,0.00,,,0.00,WUHU216HW,2013-02-20 08:55:00,
2013-02-20 01:00:00,38.2,34.3,29.83,WSW,248,0.4,0.9,86,0.00,,,0.00,WUHU216HW,2013-02-20 09:00:00,
2013-02-20 01:05:00,38.3,34.5,29.81,WSW,248,0.0,0.9,86,0.00,,,0.00,WUHU216HW,2013-02-20 09:05:00,
2013-02-20 01:10:00,38.2,34.3,29.83,NW,315,0.0,0.7,86,0.00,,,0.00,WUHU216HW,2013-02-20 09:10:00,
2013-02-20 01:16:00,38.2,34.0,29.82,WSW,248,0.0,0.4,85,0.00,,,0.00,WUHU216HW,2013-02-20 09:16:00,
2013-02-20 01:21:00,38.2,34.3,29.82,WSW,248,0.0,0.4,86,0.00,,,0.00,WUHU216HW,2013-02-20 09:21:00,
2013-02-20 01:26:00,38.3,34.5,29.82,North,0,0.0,0.4,86,0.00,,,0.00,WUHU216HW,2013-02-20 09:26:00,
2013-02-20 01:31:00,38.3,34.5,29.83,NE,45,0.4,0.4,86,0.00,,,0.00,WUHU216HW,2013-02-20 09:31:00,
2013-02-20 01:36:00,38.5,34.7,29.81,ENE,68,0.0,0.4,86,0.00,,,0.00,WUHU216HW,2013-02-20 09:36:00,
2013-02-20 01:41:00,38.5,34.7,29.82,North,0,0.0,1.1,86,0.00,,,0.00,WUHU216HW,2013-02-20 09:41:00,
2013-02-20 01:46:00,38.5,34.7,29.82,North,0,0.0,1.1,86,0.00,,,0.00,WUHU216HW,2013-02-20 09:46:00,
2013-02-20 01:51:00,38.7,34.8,29.82,SW,225,2.5,2.5,86,0.00,,,0.00,WUHU216HW,2013-02-20 09:51:00,
2013-02-20 01:56:00,38.7,34.8,29.83,NW,315,0.0,2.5,86,0.00,,,0.00,WUHU216HW,2013-02-20 09:56:00,
2013-02-20 02:01:00,38.7,34.8,29.83,NE,45,0.0,0.7,86,0.00,,,0.00,WUHU216HW,2013-02-20 10:01:00,
2013-02-20 02:06:00,38.9,35.0,29.83,SW,225,0.0,0.4,86,0.00,,,0.00,WUHU216HW,2013-02-20 10:06:00,
2013-02-20 02:11:00,38.9,35.0,29.83,SW,225,0.0,0.4,86,0.00,,,0.00,WUHU216HW,2013-02-20 10:11:00,
2013-02-20 02:16:00,38.9,35.0,29.83,WSW,248,0.0,0.2,86,0.00,,,0.00,WUHU216HW,2013-02-20 10:16:00,
2013-02-20 02:21:00,38.7,34.8,29.83,West,270,0.0,0.4,86,0.00,,,0.00,WUHU216HW,2013-02-20 10:21:00,
2013-02-20 02:26:00,38.7,34.6,29.84,SSW,203,0.2,0.4,85,0.00,,,0.00,WUHU216HW,2013-02-20 10:26:00,
2013-02-20 02:32:00,38.5,34.4,29.84,SSW,203,0.0,0.2,85,0.00,,,0.00,WUHU216HW,2013-02-20 10:32:00,
2013-02-20 02:37:00,38.5,34.4,29.83,South,180,0.2,0.2,85,0.00,,,0.00,WUHU216HW,2013-02-20 10:37:00,
2013-02-20 02:42:00,38.5,34.4,29.84,South,180,0.0,0.2,85,0.00,,,0.00,WUHU216HW,2013-02-20 10:42:00,
2013-02-20 02:47:00,38.5,34.4,29.84,WNW,293,0.7,0.7,85,0.00,,,0.00,WUHU216HW,2013-02-20 10:47:00,
2013-02-20 02:52:00,38.3,34.2,29.83,NNE,23,0.0,0.7,85,0.00,,,0.00,WUHU216HW,2013-02-20 10:52:00,
2013-02-20 02:57:00,38.3,34.2,29.84,SE,135,0.0,0.0,85,0.00,,,0.00,WUHU216HW,2013-02-20 10:57:00,
2013-02-20 03:02:00,38.3,34.2,29.84,SSE,158,0.0,0.4,85,0.00,,,0.00,WUHU216HW,2013-02-20 11:02:00,
2013-02-20 03:07:00,38.2,34.0,29.85,SSE,158,0.4,0.4,85,0.00,,,0.00,WUHU216HW,2013-02-20 11:07:00,
2013-02-20 03:12:00,38.0,33.8,29.84,SSE,158,0.4,0.4,85,0.00,,,0.00,WUHU216HW,2013-02-20 11:12:00,
2013-02-20 03:17:00,38.0,34.1,29.84,SSE,158,0.0,0.4,86,0.00,,,0.00,WUHU216HW,2013-02-20 11:17:00,
2013-02-20 03:22:00,37.8,33.9,29.85,South,180,0.2,0.4,86,0.00,,,0.00,WUHU216HW,2013-02-20 11:22:00,
2013-02-20 03:27:00,37.8,33.9,29.85,South,180,0.0,0.4,86,0.00,,,0.00,WUHU216HW,2013-02-20 11:27:00,
2013-02-20 03:32:00,37.8,33.9,29.85,South,180,0.0,0.4,86,0.00,,,0.00,WUHU216HW,2013-02-20 11:32:00,
2013-02-20 03:37:00,37.8,33.9,29.83,SSE,158,0.4,0.4,86,0.00,,,0.00,WUHU216HW,2013-02-20 11:37:00,
2013-02-20 03:42:00,37.8,33.9,29.83,SSE,158,0.2,0.4,86,0.00,,,0.00,WUHU216HW,2013-02-20 11:42:00,
2013-02-20 03:48:00,37.8,33.9,29.82,SE,135,0.0,0.9,86,0.00,,,0.00,WUHU216HW,2013-02-20 11:48:00,
2013-02-20 03:53:00,37.8,33.9,29.83,SE,135,0.2,0.9,86,0.00,,,0.00,WUHU216HW,2013-02-20 11:53:00,
2013-02-20 03:58:00,37.8,33.9,29.83,SSE,158,0.2,0.7,86,0.00,,,0.00,WUHU216HW,2013-02-20 11:58:00,
2013-02-20 04:03:00,37.6,33.8,29.83,SE,135,0.2,0.7,86,0.00,,,0.00,WUHU216HW,2013-02-20 12:03:00,
2013-02-20 04:08:00,37.6,33.8,29.85,SSE,158,0.7,0.7,86,0.00,,,0.00,WUHU216HW,2013-02-20 12:08:00,
2013-02-20 04:13:00,37.4,33.8,29.84,SSE,158,0.2,0.9,87,0.00,,,0.00,WUHU216HW,2013-02-20 12:13:00,
2013-02-20 04:18:00,37.4,33.8,29.84,SSW,203,0.9,1.1,87,0.00,,,0.00,WUHU216HW,2013-02-20 12:18:00,
2013-02-20 04:23:00,37.4,33.8,29.83,SSE,158,0.7,1.1,87,0.00,,,0.00,WUHU216HW,2013-02-20 12:23:00,
2013-02-20 04:28:00,37.4,33.8,29.83,South,180,0.4,0.9,87,0.00,,,0.00,WUHU216HW,2013-02-20 12:28:00,
2013-02-20 04:33:00,37.4,33.8,29.85,SSE,158,0.7,0.9,87,0.00,,,0.00,WUHU216HW,2013-02-20 12:33:00,
2013-02-20 04:38:00,37.4,33.8,29.84,SSW,203,1.1,1.1,87,0.00,,,0.00,WUHU216HW,2013-02-20 12:38:00,
2013-02-20 04:43:00,37.4,33.8,29.86,South,180,0.0,1.1,87,0.00,,,0.00,WUHU216HW,2013-02-20 12:43:00,
2013-02-20 04:48:00,37.4,33.8,29.85,SE,135,0.4,0.7,87,0.00,,,0.00,WUHU216HW,2013-02-20 12:48:00,
2013-02-20 04:53:00,37.4,33.8,29.84,WSW,248,0.4,2.0,87,0.00,,,0.00,WUHU216HW,2013-02-20 12:53:00,
2013-02-20 04:59:00,37.4,33.8,29.84,South,180,0.0,2.0,87,0.00,,,0.00,WUHU216HW,2013-02-20 12:59:00,
2013-02-20 05:04:00,37.4,33.8,29.86,WNW,293,0.2,0.9,87,0.00,,,0.00,WUHU216HW,2013-02-20 13:04:00,
2013-02-20 05:09:00,37.6,34.0,29.85,SSE,158,0.0,0.7,87,0.00,,,0.00,WUHU216HW,2013-02-20 13:09:00,
2013-02-20 05:14:00,37.6,34.0,29.86,ESE,113,0.0,0.7,87,0.00,,,0.00,WUHU216HW,2013-02-20 13:14:00,
2013-02-20 05:19:00,37.6,34.0,29.85,SSE,158,0.0,0.4,87,0.00,,,0.00,WUHU216HW,2013-02-20 13:19:00,
2013-02-20 05:24:00,37.6,34.0,29.86,East,90,0.4,0.4,87,0.00,,,0.00,WUHU216HW,2013-02-20 13:24:00,
2013-02-20 05:29:00,37.8,34.2,29.86,West,270,0.2,0.4,87,0.00,,,0.00,WUHU216HW,2013-02-20 13:29:00,
2013-02-20 05:34:00,37.8,34.2,29.87,SE,135,0.2,0.4,87,0.00,,,0.00,WUHU216HW,2013-02-20 13:34:00,
2013-02-20 05:39:00,37.8,34.2,29.86,SE,135,0.7,0.7,87,0.00,,,0.00,WUHU216HW,2013-02-20 13:39:00,
2013-02-20 05:44:00,37.8,34.2,29.86,SE,135,0.4,0.7,87,0.00,,,0.00,WUHU216HW,2013-02-20 13:44:00,
2013-02-20 05:49:00,37.8,34.2,29.86,SW,225,0.7,0.7,87,0.00,,,0.00,WUHU216HW,2013-02-20 13:49:00,
2013-02-20 05:54:00,37.8,34.2,29.86,SE,135,0.4,1.3,87,0.00,,,0.00,WUHU216HW,2013-02-20 13:54:00,
2013-02-20 05:59:00,37.8,34.6,29.87,South,180,0.7,1.3,88,0.00,,,0.00,WUHU216HW,2013-02-20 13:59:00,
2013-02-20 06:04:00,37.8,34.6,29.86,SW,225,1.1,1.3,88,0.00,,,0.00,WUHU216HW,2013-02-20 14:04:00,
2013-02-20 06:09:00,37.8,34.6,29.88,South,180,0.4,1.8,88,0.00,,,0.00,WUHU216HW,2013-02-20 14:09:00,
2013-02-20 06:14:00,37.8,34.6,29.87,SSE,158,1.1,1.8,88,0.00,,,0.00,WUHU216HW,2013-02-20 14:14:00,
2013-02-20 06:20:00,37.8,34.6,29.87,SW,225,0.4,1.3,88,0.00,,,0.00,WUHU216HW,2013-02-20 14:20:00,
2013-02-20 06:25:00,37.8,34.6,29.87,WSW,248,0.4,0.7,88,0.00,,,0.00,WUHU216HW,2013-02-20 14:25:00,
2013-02-20 06:30:00,37.8,34.6,29.88,SW,225,0.2,0.9,88,0.00,,,0.00,WUHU216HW,2013-02-20 14:30:00,
2013-02-20 06:35:00,38.0,34.8,29.88,WSW,248,0.9,0.9,88,0.00,,,0.00,WUHU216HW,2013-02-20 14:35:00,
2013-02-20 06:40:00,38.0,34.8,29.88,SSW,203,1.1,1.6,88,0.00,,,0.00,WUHU216HW,2013-02-20 14:40:00,
2013-02-20 06:45:00,38.0,34.8,29.88,SSE,158,1.1,2.0,88,0.00,,,0.00,WUHU216HW,2013-02-20 14:45:00,
2013-02-20 06:50:00,38.0,34.8,29.88,WSW,248,0.4,2.0,88,0.00,,,0.00,WUHU216HW,2013-02-20 14:50:00,
2013-02-20 06:55:00,38.2,34.9,29.89,SW,225,1.3,1.3,88,0.00,,,0.00,WUHU216HW,2013-02-20 14:55:00,
2013-02-20 07:00:00,38.2,35.2,29.89,SW,225,1.3,1.6,89,0.00,,,0.00,WUHU216HW,2013-02-20 15:00:00,
2013-02-20 07:05:00,38.2,35.2,29.89,SW,225,0.9,1.8,89,0.00,,,0.00,WUHU216HW,2013-02-20 15:05:00,
2013-02-20 07:10:00,38.2,35.2,29.90,West,270,1.3,1.8,89,0.00,,,0.00,WUHU216HW,2013-02-20 15:10:00,
2013-02-20 07:15:00,38.3,35.4,29.89,SSW,203,0.9,2.5,89,0.00,,,0.00,WUHU216HW,2013-02-20 15:15:00,
2013-02-20 07:20:00,38.5,35.6,29.89,SSW,203,0.4,2.5,89,0.00,,,0.00,WUHU216HW,2013-02-20 15:20:00,
2013-02-20 07:25:00,38.5,35.6,29.90,SW,225,1.6,1.6,89,0.00,,,0.00,WUHU216HW,2013-02-20 15:25:00,
2013-02-20 07:30:00,38.7,35.7,29.90,South,180,0.7,1.6,89,0.00,,,0.00,WUHU216HW,2013-02-20 15:30:00,
2013-02-20 07:36:00,38.9,36.2,29.90,SW,225,1.6,1.6,90,0.00,,,0.00,WUHU216HW,2013-02-20 15:36:00,
2013-02-20 07:41:00,38.9,36.2,29.90,South,180,0.9,1.8,90,0.01,,,0.02,WUHU216HW,2013-02-20 15:41:00,
2013-02-20 07:46:00,38.9,36.2,29.91,South,180,0.7,1.8,90,0.01,,,0.02,WUHU216HW,2013-02-20 15:46:00,
2013-02-20 07:51:00,39.1,36.4,29.94,SW,225,1.1,1.1,90,0.01,,,0.02,WUHU216HW,2013-02-20 15:51:00,
2013-02-20 07:56:00,39.1,36.4,29.94,WSW,248,1.3,3.4,90,0.01,,,0.02,WUHU216HW,2013-02-20 15:56:00,
2013-02-20 08:01:00,39.2,36.5,29.95,South,180,0.9,3.4,90,0.01,,,0.02,WUHU216HW,2013-02-20 16:01:00,
2013-02-20 08:06:00,39.6,36.9,29.94,SW,225,1.1,2.2,90,0.01,,,0.02,WUHU216HW,2013-02-20 16:06:00,
2013-02-20 08:11:00,39.8,37.1,29.96,West,270,1.1,2.5,90,0.01,,,0.02,WUHU216HW,2013-02-20 16:11:00,
2013-02-20 08:16:00,40.0,37.3,29.95,SW,225,0.4,2.5,90,0.01,,,0.02,WUHU216HW,2013-02-20 16:16:00,
2013-02-20 08:21:00,40.3,37.6,29.97,WSW,248,0.9,1.1,90,0.01,,,0.02,WUHU216HW,2013-02-20 16:21:00,
2013-02-20 08:26:00,40.7,38.0,29.96,SW,225,1.3,1.8,90,0.01,,,0.02,WUHU216HW,2013-02-20 16:26:00,
2013-02-20 08:31:00,40.9,38.2,29.95,South,180,0.4,1.8,90,0.01,,,0.02,WUHU216HW,2013-02-20 16:31:00,
2013-02-20 08:36:00,41.2,38.5,29.95,West,270,1.1,2.2,90,0.00,,,0.02,WUHU216HW,2013-02-20 16:36:00,
2013-02-20 08:42:00,41.6,38.9,29.95,SW,225,0.4,2.2,90,0.00,,,0.02,WUHU216HW,2013-02-20 16:42:00,
2013-02-20 08:47:00,41.9,39.2,29.96,WSW,248,0.9,1.1,90,0.00,,,0.02,WUHU216HW,2013-02-20 16:47:00,
2013-02-20 08:52:00,42.1,39.4,29.95,WSW,248,1.1,1.8,90,0.00,,,0.02,WUHU216HW,2013-02-20 16:52:00,
2013-02-20 08:57:00,42.7,40.0,29.96,SSW,203,1.6,1.6,90,0.00,,,0.02,WUHU216HW,2013-02-20 16:57:00,
2013-02-20 09:02:00,42.8,40.1,29.96,WSW,248,0.4,1.6,90,0.00,,,0.02,WUHU216HW,2013-02-20 17:02:00,
2013-02-20 09:07:00,43.2,40.2,29.95,WSW,248,1.1,2.5,89,0.00,,,0.02,WUHU216HW,2013-02-20 17:07:00,
2013-02-20 09:12:00,43.6,40.6,29.96,SE,135,0.2,2.5,89,0.00,,,0.02,WUHU216HW,2013-02-20 17:12:00,
2013-02-20 09:17:00,43.7,40.4,29.98,SW,225,2.7,2.7,88,0.00,,,0.02,WUHU216HW,2013-02-20 17:17:00,
2013-02-20 09:22:00,44.1,40.8,29.96,WSW,248,0.4,2.7,88,0.00,,,0.02,WUHU216HW,2013-02-20 17:22:00,
2013-02-20 09:27:00,44.5,41.1,29.96,WSW,248,1.1,2.0,88,0.00,,,0.02,WUHU216HW,2013-02-20 17:27:00,
2013-02-20 09:32:00,45.0,42.0,29.96,SSE,158,0.4,1.6,89,0.00,,,0.02,WUHU216HW,2013-02-20 17:32:00,
2013-02-20 09:37:00,45.2,41.9,29.97,ESE,113,0.4,1.6,88,0.00,,,0.02,WUHU216HW,2013-02-20 17:37:00,
2013-02-20 09:42:00,45.5,42.2,29.96,ESE,113,0.9,1.1,88,0.00,,,0.02,WUHU216HW,2013-02-20 17:42:00,
2013-02-20 09:47:00,45.7,42.1,29.96,West,270,0.4,1.1,87,0.00,,,0.02,WUHU216HW,2013-02-20 17:47:00,
2013-02-20 09:53:00,46.1,42.5,29.97,WSW,248,0.4,1.1,87,0.00,,,0.02,WUHU216HW,2013-02-20 17:53:00,
2013-02-20 09:58:00,46.4,42.9,29.97,West,270,0.2,1.1,87,0.00,,,0.02,WUHU216HW,2013-02-20 17:58:00,
2013-02-20 10:03:00,46.8,42.8,29.98,NNW,338,1.1,1.1,86,0.00,,,0.02,WUHU216HW,2013-02-20 18:03:00,
2013-02-20 10:08:00,47.2,42.9,29.96,NNE,23,0.4,2.5,85,0.00,,,0.02,WUHU216HW,2013-02-20 18:08:00,
2013-02-20 10:13:00,47.5,43.2,29.96,WSW,248,1.1,2.5,85,0.00,,,0.02,WUHU216HW,2013-02-20 18:13:00,
2013-02-20 10:18:00,47.9,42.9,29.98,WSW,248,0.7,1.8,83,0.00,,,0.02,WUHU216HW,2013-02-20 18:18:00,
2013-02-20 10:23:00,48.1,43.1,29.98,NE,45,0.4,0.9,83,0.00,,,0.02,WUHU216HW,2013-02-20 18:23:00,
2013-02-20 10:28:00,48.2,42.9,29.97,WNW,293,1.1,2.0,82,0.00,,,0.02,WUHU216HW,2013-02-20 18:28:00,
2013-02-20 10:33:00,48.6,42.3,29.98,ENE,68,0.0,2.0,79,0.00,,,0.02,WUHU216HW,2013-02-20 18:33:00,
2013-02-20 10:38:00,48.8,41.1,29.98,NE,45,2.2,2.2,75,0.00,,,0.02,WUHU216HW,2013-02-20 18:38:00,
2013-02-20 10:43:00,49.0,41.0,29.94,SE,135,0.2,3.4,74,0.00,,,0.02,WUHU216HW,2013-02-20 18:43:00,
2013-02-20 10:48:00,49.5,42.2,29.94,SSW,203,0.0,3.4,76,0.00,,,0.02,WUHU216HW,2013-02-20 18:48:00,
2013-02-20 10:53:00,49.9,42.9,29.94,ESE,113,1.1,2.0,77,0.00,,,0.02,WUHU216HW,2013-02-20 18:53:00,
2013-02-20 10:58:00,50.0,42.8,29.95,West,270,0.4,2.5,76,0.00,,,0.02,WUHU216HW,2013-02-20 18:58:00,
2013-02-20 11:03:00,50.0,42.8,29.94,SE,135,1.1,2.5,76,0.00,,,0.02,WUHU216HW,2013-02-20 19:03:00,
2013-02-20 11:09:00,50.0,42.0,29.95,ENE,68,1.1,2.2,74,0.00,,,0.02,WUHU216HW,2013-02-20 19:09:00,
2013-02-20 11:14:00,50.4,42.4,29.95,WSW,248,0.0,2.2,74,0.00,,,0.02,WUHU216HW,2013-02-20 19:14:00,
2013-02-20 11:19:00,50.8,41.8,29.94,ENE,68,0.4,1.1,71,0.00,,,0.02,WUHU216HW,2013-02-20 19:19:00,
2013-02-20 11:24:00,50.6,41.6,29.94,North,0,0.2,2.2,71,0.00,,,0.02,WUHU216HW,2013-02-20 19:24:00,
2013-02-20 11:29:00,50.8,41.8,29.94,NW,315,1.1,2.2,71,0.00,,,0.02,WUHU216HW,2013-02-20 19:29:00,
2013-02-20 11:34:00,50.9,41.6,29.96,NW,315,0.4,2.2,70,0.00,,,0.02,WUHU216HW,2013-02-20 19:34:00,
2013-02-20 11:39:00,51.1,42.1,29.95,SW,225,0.2,2.5,71,0.00,,,0.02,WUHU216HW,2013-02-20 19:39:00,
2013-02-20 11:44:00,51.3,42.9,29.96,NNW,338,1.3,2.5,73,0.00,,,0.02,WUHU216HW,2013-02-20 19:44:00,
2013-02-20 11:49:00,51.5,42.9,29.95,NW,315,1.3,3.1,72,0.00,,,0.02,WUHU216HW,2013-02-20 19:49:00,
2013-02-20 11:54:00,51.5,42.9,29.95,ENE,68,5.4,5.4,72,0.00,,,0.02,WUHU216HW,2013-02-20 19:54:00,
2013-02-20 11:59:00,51.1,42.8,29.97,NNE,23,2.5,6.0,73,0.00,,,0.02,WUHU216HW,2013-02-20 19:59:00,
2013-02-20 12:04:00,50.9,43.3,29.96,North,0,3.4,6.0,75,0.00,,,0.02,WUHU216HW,2013-02-20 20:04:00,
2013-02-20 12:09:00,50.9,43.3,29.95,NE,45,3.4,4.7,75,0.00,,,0.02,WUHU216HW,2013-02-20 20:09:00,
2013-02-20 12:14:00,51.1,43.5,29.96,WSW,248,1.1,4.7,75,0.00,,,0.02,WUHU216HW,2013-02-20 20:14:00,
2013-02-20 12:20:00,51.3,43.7,29.95,WSW,248,1.1,4.0,75,0.00,,,0.02,WUHU216HW,2013-02-20 20:20:00,
2013-02-20 12:25:00,51.5,43.5,29.95,NNE,23,0.9,1.1,74,0.00,,,0.02,WUHU216HW,2013-02-20 20:25:00,
2013-02-20 12:30:00,51.7,44.0,29.95,SW,225,1.1,1.1,75,0.00,,,0.02,WUHU216HW,2013-02-20 20:30:00,
2013-02-20 12:35:00,51.8,43.5,29.94,WSW,248,3.1,3.1,73,0.00,,,0.02,WUHU216HW,2013-02-20 20:35:00,
2013-02-20 12:40:00,51.8,43.2,29.94,SE,135,1.1,3.1,72,0.00,,,0.02,WUHU216HW,2013-02-20 20:40:00,
2013-02-20 12:45:00,52.0,43.3,29.94,North,0,1.6,1.8,72,0.00,,,0.02,WUHU216HW,2013-02-20 20:45:00,
2013-02-20 12:50:00,52.0,43.0,29.94,WSW,248,1.1,3.4,71,0.00,,,0.02,WUHU216HW,2013-02-20 20:50:00,
2013-02-20 12:55:00,52.0,43.3,29.95,NNE,23,3.1,4.0,72,0.00,,,0.02,WUHU216HW,2013-02-20 20:55:00,
2013-02-20 13:00:00,52.0,42.7,29.96,NW,315,2.2,4.0,70,0.00,,,0.02,WUHU216HW,2013-02-20 21:00:00,
2013-02-20 13:05:00,51.7,42.7,29.94,ENE,68,0.7,3.4,71,0.00,,,0.02,WUHU216HW,2013-02-20 21:05:00,
2013-02-20 13:10:00,51.7,42.7,29.96,WSW,248,0.4,2.5,71,0.00,,,0.02,WUHU216HW,2013-02-20 21:10:00,
2013-02-20 13:15:00,51.8,42.5,29.95,SW,225,2.5,2.5,70,0.00,,,0.02,WUHU216HW,2013-02-20 21:15:00,
2013-02-20 13:20:00,51.5,42.5,29.95,WNW,293,1.3,2.5,71,0.00,,,0.02,WUHU216HW,2013-02-20 21:20:00,
2013-02-20 13:25:00,51.1,42.1,29.96,North,0,2.5,2.5,71,0.00,,,0.02,WUHU216HW,2013-02-20 21:25:00,
2013-02-20 13:31:00,51.3,42.7,29.95,WNW,293,2.9,3.4,72,0.00,,,0.02,WUHU216HW,2013-02-20 21:31:00,
2013-02-20 13:36:00,51.5,42.9,29.94,SE,135,0.7,3.4,72,0.00,,,0.02,WUHU216HW,2013-02-20 21:36:00,
2013-02-20 13:41:00,51.3,42.9,29.94,NNW,338,1.8,3.1,73,0.00,,,0.02,WUHU216HW,2013-02-20 21:41:00,
2013-02-20 13:46:00,51.5,43.5,29.95,NNE,23,2.7,3.1,74,0.00,,,0.02,WUHU216HW,2013-02-20 21:46:00,
2013-02-20 13:51:00,51.5,43.5,29.95,NNE,23,5.4,5.4,74,0.00,,,0.02,WUHU216HW,2013-02-20 21:51:00,
2013-02-20 13:56:00,51.5,42.9,29.94,NNE,23,3.1,6.7,72,0.00,,,0.02,WUHU216HW,2013-02-20 21:56:00,
2013-02-20 14:01:00,51.5,42.9,29.94,SE,135,3.8,6.7,72,0.00,,,0.02,WUHU216HW,2013-02-20 22:01:00,
2013-02-20 14:06:00,51.5,42.9,29.94,NNE,23,0.4,3.8,72,0.00,,,0.02,WUHU216HW,2013-02-20 22:06:00,
2013-02-20 14:11:00,51.5,42.5,29.94,NE,45,4.0,4.0,71,0.00,,,0.02,WUHU216HW,2013-02-20 22:11:00,
2013-02-20 14:16:00,51.5,42.9,29.95,SSE,158,0.9,4.0,72,0.00,,,0.02,WUHU216HW,2013-02-20 22:16:00,
2013-02-20 14:21:00,51.5,42.9,29.94,NW,315,0.4,4.0,72,0.00,,,0.02,WUHU216HW,2013-02-20 22:21:00,
2013-02-20 14:26:00,51.3,42.3,29.94,WNW,293,2.5,4.0,71,0.00,,,0.02,WUHU216HW,2013-02-20 22:26:00,
2013-02-20 14:31:00,50.9,42.0,29.94,NNE,23,2.2,2.9,71,0.00,,,0.02,WUHU216HW,2013-02-20 22:31:00,
2013-02-20 14:36:00,50.8,41.8,29.94,NW,315,1.6,3.4,71,0.00,,,0.02,WUHU216HW,2013-02-20 22:36:00,
2013-02-20 14:42:00,50.6,42.2,29.94,East,90,2.5,6.3,73,0.00,,,0.02,WUHU216HW,2013-02-20 22:42:00,
2013-02-20 14:47:00,50.2,42.2,29.94,North,0,3.1,6.9,74,0.00,,,0.02,WUHU216HW,2013-02-20 22:47:00,
2013-02-20 14:52:00,50.0,42.4,29.95,SSW,203,0.7,6.9,75,0.00,,,0.02,WUHU216HW,2013-02-20 22:52:00,
2013-02-20 14:57:00,49.9,41.9,29.94,NNE,23,5.1,6.3,74,0.00,,,0.02,WUHU216HW,2013-02-20 22:57:00,
2013-02-20 15:02:00,49.9,42.2,29.95,ENE,68,0.4,6.3,75,0.00,,,0.02,WUHU216HW,2013-02-20 23:02:00,
2013-02-20 15:07:00,49.9,42.2,29.94,NNW,338,0.7,4.5,75,0.00,,,0.02,WUHU216HW,2013-02-20 23:07:00,
2013-02-20 15:12:00,49.9,42.2,29.94,NNW,338,2.5,4.5,75,0.00,,,0.02,WUHU216HW,2013-02-20 23:12:00,
2013-02-20 15:17:00,49.9,42.2,29.94,NNW,338,1.1,4.3,75,0.00,,,0.02,WUHU216HW,2013-02-20 23:17:00,
2013-02-20 15:22:00,49.9,42.2,29.94,NNE,23,2.0,4.3,75,0.00,,,0.02,WUHU216HW,2013-02-20 23:22:00,
2013-02-20 15:27:00,50.0,42.4,29.94,North,0,1.1,2.5,75,0.00,,,0.02,WUHU216HW,2013-02-20 23:27:00,
2013-02-20 15:32:00,50.0,42.4,29.94,NNW,338,1.8,7.4,75,0.00,,,0.02,WUHU216HW,2013-02-20 23:32:00,
2013-02-20 15:37:00,50.0,42.4,29.94,North,0,1.3,7.4,75,0.00,,,0.02,WUHU216HW,2013-02-20 23:37:00,
2013-02-20 15:42:00,50.0,42.0,29.96,WNW,293,1.8,6.7,74,0.00,,,0.02,WUHU216HW,2013-02-20 23:42:00,
2013-02-20 15:47:00,49.9,41.5,29.94,SE,135,0.7,6.7,73,0.00,,,0.02,WUHU216HW,2013-02-20 23:47:00,
2013-02-20 15:52:00,49.7,41.3,29.95,NNW,338,0.7,2.5,73,0.00,,,0.02,WUHU216HW,2013-02-20 23:52:00,
2013-02-20 15:58:00,49.9,41.9,29.95,NW,315,0.0,2.0,74,0.00,,,0.02,WUHU216HW,2013-02-20 23:58:00,
2013-02-20 16:03:00,49.9,41.9,29.96,ESE,113,1.3,1.8,74,0.00,,,0.02,WUHU216HW,2013-02-21 00:03:00,
2013-02-20 16:08:00,49.9,41.9,29.95,NNE,23,0.0,1.8,74,0.00,,,0.02,WUHU216HW,2013-02-21 00:08:00,
2013-02-20 16:13:00,49.9,41.9,29.95,SSE,158,0.4,1.8,74,0.00,,,0.02,WUHU216HW,2013-02-21 00:13:00,
2013-02-20 16:18:00,49.7,41.7,29.95,South,180,0.2,1.1,74,0.00,,,0.02,WUHU216HW,2013-02-21 00:18:00,
2013-02-20 16:23:00,49.5,41.5,29.96,NNW,338,0.2,1.1,74,0.00,,,0.02,WUHU216HW,2013-02-21 00:23:00,
2013-02-20 16:28:00,49.5,41.5,29.96,NNW,338,0.9,1.3,74,0.00,,,0.02,WUHU216HW,2013-02-21 00:28:00,
2013-02-20 16:33:00,49.1,40.8,29.97,WNW,293,1.6,1.6,73,0.00,,,0.02,WUHU216HW,2013-02-21 00:33:00,
2013-02-20 16:38:00,48.6,40.6,29.95,WSW,248,0.4,1.8,74,0.00,,,0.02,WUHU216HW,2013-02-21 00:38:00,
2013-02-20 16:43:00,48.4,40.8,29.96,SW,225,0.9,1.8,75,0.00,,,0.02,WUHU216HW,2013-02-21 00:43:00,
2013-02-20 16:48:00,48.2,40.6,29.95,East,90,0.2,1.3,75,0.00,,,0.02,WUHU216HW,2013-02-21 00:48:00,
2013-02-20 16:53:00,48.1,40.4,29.95,SSE,158,0.4,1.3,75,0.00,,,0.02,WUHU216HW,2013-02-21 00:53:00,
2013-02-20 16:58:00,47.9,40.6,29.96,SSE,158,0.4,1.1,76,0.00,,,0.02,WUHU216HW,2013-02-21 00:58:00,
2013-02-20 17:03:00,47.9,40.6,29.96,North,0,0.4,1.3,76,0.00,,,0.02,WUHU216HW,2013-02-21 01:03:00,
2013-02-20 17:08:00,47.7,40.8,29.97,SSW,203,1.1,1.8,77,0.00,,,0.02,WUHU216HW,2013-02-21 01:08:00,
2013-02-20 17:14:00,47.5,40.6,29.96,South,180,1.1,1.8,77,0.00,,,0.02,WUHU216HW,2013-02-21 01:14:00,
2013-02-20 17:19:00,47.3,40.8,29.96,North,0,2.2,2.2,78,0.00,,,0.02,WUHU216HW,2013-02-21 01:19:00,
2013-02-20 17:24:00,47.2,40.7,29.96,SE,135,0.4,2.2,78,0.00,,,0.02,WUHU216HW,2013-02-21 01:24:00,
2013-02-20 17:29:00,47.0,40.5,29.96,WSW,248,1.6,1.6,78,0.00,,,0.02,WUHU216HW,2013-02-21 01:29:00,
2013-02-20 17:34:00,46.8,40.0,29.98,SW,225,2.0,2.0,77,0.00,,,0.02,WUHU216HW,2013-02-21 01:34:00,
2013-02-20 17:39:00,46.6,40.1,29.96,West,270,0.4,2.0,78,0.00,,,0.02,WUHU216HW,2013-02-21 01:39:00,
2013-02-20 17:44:00,46.4,40.0,29.98,West,270,0.9,1.6,78,0.00,,,0.02,WUHU216HW,2013-02-21 01:44:00,
2013-02-20 17:49:00,46.4,40.3,29.97,West,270,0.7,2.2,79,0.00,,,0.02,WUHU216HW,2013-02-21 01:49:00,
2013-02-20 17:54:00,46.4,40.3,29.99,SSE,158,1.1,3.1,79,0.00,,,0.02,WUHU216HW,2013-02-21 01:54:00,
2013-02-20 17:59:00,46.4,40.3,29.98,SSW,203,0.4,3.1,79,0.00,,,0.02,WUHU216HW,2013-02-21 01:59:00,
2013-02-20 18:04:00,46.3,40.5,29.98,NE,45,2.0,2.0,80,0.00,,,0.02,WUHU216HW,2013-02-21 02:04:00,
2013-02-20 18:09:00,46.1,40.6,29.98,WSW,248,1.3,2.2,81,0.00,,,0.02,WUHU216HW,2013-02-21 02:09:00,
2013-02-20 18:14:00,46.1,40.6,29.98,WSW,248,0.7,2.2,81,0.00,,,0.02,WUHU216HW,2013-02-21 02:14:00,
2013-02-20 18:20:00,46.1,40.6,29.99,South,180,1.1,1.3,81,0.00,,,0.02,WUHU216HW,2013-02-21 02:20:00,
2013-02-20 18:25:00,46.1,41.0,29.97,WSW,248,0.7,2.7,82,0.00,,,0.02,WUHU216HW,2013-02-21 02:25:00,
2013-02-20 18:30:00,45.9,40.8,29.99,SSE,158,0.7,2.9,82,0.00,,,0.02,WUHU216HW,2013-02-21 02:30:00,
2013-02-20 18:35:00,45.9,40.4,29.99,ESE,113,1.6,2.9,81,0.00,,,0.02,WUHU216HW,2013-02-21 02:35:00,
2013-02-20 18:40:00,45.7,40.6,29.99,SSE,158,1.1,2.5,82,0.00,,,0.02,WUHU216HW,2013-02-21 02:40:00,
2013-02-20 18:45:00,45.7,40.6,29.99,SE,135,2.5,2.5,82,0.00,,,0.02,WUHU216HW,2013-02-21 02:45:00,
2013-02-20 18:50:00,45.7,40.6,29.99,SSE,158,0.4,2.5,82,0.00,,,0.02,WUHU216HW,2013-02-21 02:50:00,
2013-02-20 18:55:00,45.7,40.6,29.99,South,180,0.4,2.0,82,0.00,,,0.02,WUHU216HW,2013-02-21 02:55:00,
2013-02-20 19:01:00,45.7,40.6,29.99,SE,135,0.0,0.4,82,0.00,,,0.02,WUHU216HW,2013-02-21 03:01:00,
2013-02-20 19:06:00,45.9,41.0,30.00,NNE,23,1.1,1.6,83,0.00,,,0.02,WUHU216HW,2013-02-21 03:06:00,
2013-02-20 19:11:00,45.9,41.0,30.01,SSW,203,0.9,1.6,83,0.00,,,0.02,WUHU216HW,2013-02-21 03:11:00,
2013-02-20 19:16:00,45.9,41.0,30.00,SW,225,0.2,1.1,83,0.00,,,0.02,WUHU216HW,2013-02-21 03:16:00,
2013-02-20 19:21:00,45.9,41.0,30.01,WNW,293,0.2,1.1,83,0.00,,,0.02,WUHU216HW,2013-02-21 03:21:00,
2013-02-20 19:26:00,45.9,41.0,30.01,WSW,248,0.2,2.2,83,0.00,,,0.02,WUHU216HW,2013-02-21 03:26:00,
2013-02-20 19:31:00,45.9,41.0,30.01,WSW,248,1.8,2.2,83,0.00,,,0.02,WUHU216HW,2013-02-21 03:31:00,
2013-02-20 19:36:00,45.9,41.0,30.01,WSW,248,0.2,2.5,83,0.00,,,0.02,WUHU216HW,2013-02-21 03:36:00,
2013-02-20 19:41:00,45.9,41.4,30.00,SW,225,1.8,3.8,84,0.00,,,0.02,WUHU216HW,2013-02-21 03:41:00,
2013-02-20 19:46:00,45.7,41.2,30.01,SSW,203,0.7,3.8,84,0.00,,,0.02,WUHU216HW,2013-02-21 03:46:00,
2013-02-20 19:51:00,45.9,41.4,30.02,South,180,1.3,1.3,84,0.00,,,0.02,WUHU216HW,2013-02-21 03:51:00,
2013-02-20 19:56:00,45.7,41.5,30.01,SSW,203,1.3,2.0,85,0.00,,,0.02,WUHU216HW,2013-02-21 03:56:00,
2013-02-20 20:01:00,45.7,41.2,30.01,SSW,203,0.9,2.0,84,0.00,,,0.02,WUHU216HW,2013-02-21 04:01:00,
2013-02-20 20:06:00,45.7,41.2,30.01,ESE,113,0.0,2.0,84,0.00,,,0.02,WUHU216HW,2013-02-21 04:06:00,
2013-02-20 20:11:00,45.7,41.2,30.01,SSW,203,0.4,2.0,84,0.00,,,0.02,WUHU216HW,2013-02-21 04:11:00,
2013-02-20 20:16:00,45.7,41.2,30.01,WSW,248,0.0,1.6,84,0.00,,,0.02,WUHU216HW,2013-02-21 04:16:00,
2013-02-20 20:22:00,45.9,41.4,30.01,SW,225,0.0,2.5,84,0.00,,,0.02,WUHU216HW,2013-02-21 04:22:00,
2013-02-20 20:27:00,45.9,41.7,30.02,North,0,1.1,2.7,85,0.00,,,0.02,WUHU216HW,2013-02-21 04:27:00,
2013-02-20 20:32:00,45.7,41.5,30.02,SE,135,0.4,2.7,85,0.00,,,0.02,WUHU216HW,2013-02-21 04:32:00,
2013-02-20 20:37:00,45.9,41.7,30.02,WSW,248,0.7,1.1,85,0.00,,,0.02,WUHU216HW,2013-02-21 04:37:00,
2013-02-20 20:42:00,45.9,41.7,30.02,WSW,248,0.2,1.6,85,0.00,,,0.02,WUHU216HW,2013-02-21 04:42:00,
2013-02-20 20:47:00,45.7,41.5,30.04,NNE,23,0.0,1.6,85,0.00,,,0.02,WUHU216HW,2013-02-21 04:47:00,
2013-02-20 20:52:00,45.7,41.5,30.02,West,270,0.4,2.0,85,0.00,,,0.02,WUHU216HW,2013-02-21 04:52:00,
2013-02-20 20:57:00,45.7,41.5,30.03,SSE,158,0.9,2.7,85,0.00,,,0.02,WUHU216HW,2013-02-21 04:57:00,
2013-02-20 21:00:00,45.7,41.5,30.02,South,180,0.4,2.7,85,0.00,,,0.02,WUHU216HW,2013-02-21 05:00:00,
2013-02-20 21:01:00,45.7,41.5,30.01,WNW,293,0.4,2.7,85,0.00,,,0.02,WUHU216HW,2013-02-21 05:01:00,
2013-02-20 21:07:00,45.7,41.5,30.03,North,0,0.4,1.3,85,0.00,,,0.02,WUHU216HW,2013-02-21 05:07:00,
2013-02-20 21:12:00,45.7,41.5,30.04,ESE,113,1.3,1.3,85,0.00,,,0.02,WUHU216HW,2013-02-21 05:12:00,
2013-02-20 21:17:00,45.7,41.5,30.03,SW,225,1.1,2.2,85,0.00,,,0.02,WUHU216HW,2013-02-21 05:17:00,
2013-02-20 21:22:00,45.7,41.5,30.04,SSE,158,1.3,2.2,85,0.00,,,0.02,WUHU216HW,2013-02-21 05:22:00,
2013-02-20 21:27:00,45.7,41.8,30.02,North,0,0.2,3.8,86,0.00,,,0.02,WUHU216HW,2013-02-21 05:27:00,
2013-02-20 21:32:00,45.5,41.6,30.03,West,270,1.1,3.8,86,0.00,,,0.02,WUHU216HW,2013-02-21 05:32:00,
2013-02-20 21:37:00,45.5,42.0,30.04,SSE,158,1.1,1.8,87,0.00,,,0.02,WUHU216HW,2013-02-21 05:37:00,
2013-02-20 21:42:00,45.5,42.0,30.04,SSW,203,0.4,1.8,87,0.00,,,0.02,WUHU216HW,2013-02-21 05:42:00,
2013-02-20 21:47:00,45.5,41.6,30.03,East,90,0.7,2.5,86,0.00,,,0.02,WUHU216HW,2013-02-21 05:47:00,
2013-02-20 21:52:00,45.5,42.0,30.04,NNW,338,1.1,2.5,87,0.00,,,0.02,WUHU216HW,2013-02-21 05:52:00,
2013-02-20 21:57:00,45.7,41.8,30.04,WNW,293,1.3,1.6,86,0.00,,,0.02,WUHU216HW,2013-02-21 05:57:00,
2013-02-20 22:03:00,45.5,41.6,30.04,NNE,23,1.8,1.8,86,0.00,,,0.02,WUHU216HW,2013-02-21 06:03:00,
2013-02-20 22:08:00,45.7,41.8,30.04,SE,135,0.9,1.8,86,0.00,,,0.02,WUHU216HW,2013-02-21 06:08:00,
2013-02-20 22:13:00,45.7,41.8,30.04,ENE,68,0.4,1.6,86,0.00,,,0.02,WUHU216HW,2013-02-21 06:13:00,
2013-02-20 22:18:00,45.7,41.8,30.04,WSW,248,1.3,1.6,86,0.00,,,0.02,WUHU216HW,2013-02-21 06:18:00,
2013-02-20 22:23:00,45.7,41.8,30.04,South,180,0.2,1.6,86,0.00,,,0.02,WUHU216HW,2013-02-21 06:23:00,
2013-02-20 22:28:00,45.7,41.8,30.03,SE,135,0.2,2.5,86,0.00,,,0.02,WUHU216HW,2013-02-21 06:28:00,
2013-02-20 22:33:00,45.7,41.8,30.04,SSE,158,0.7,2.5,86,0.00,,,0.02,WUHU216HW,2013-02-21 06:33:00,
2013-02-20 22:38:00,45.7,41.8,30.04,WSW,248,1.1,1.8,86,0.00,,,0.02,WUHU216HW,2013-02-21 06:38:00,
2013-02-20 22:43:00,45.7,41.8,30.02,ESE,113,0.9,1.8,86,0.00,,,0.02,WUHU216HW,2013-02-21 06:43:00,
2013-02-20 22:48:00,45.7,41.8,30.04,SSE,158,0.0,0.9,86,0.00,,,0.02,WUHU216HW,2013-02-21 06:48:00,
2013-02-20 22:53:00,45.7,41.8,30.04,WSW,248,0.7,1.1,86,0.00,,,0.02,WUHU216HW,2013-02-21 06:53:00,
2013-02-20 22:58:00,45.7,41.8,30.03,West,270,1.8,2.0,86,0.00,,,0.02,WUHU216HW,2013-02-21 06:58:00,
2013-02-20 23:03:00,45.7,41.8,30.04,ENE,68,0.4,2.0,86,0.00,,,0.02,WUHU216HW,2013-02-21 07:03:00,
2013-02-20 23:08:00,45.5,41.6,30.04,South,180,0.7,1.8,86,0.00,,,0.02,WUHU216HW,2013-02-21 07:08:00,
2013-02-20 23:14:00,45.5,41.6,30.05,SSW,203,0.9,1.6,86,0.00,,,0.02,WUHU216HW,2013-02-21 07:14:00,
2013-02-20 23:19:00,45.5,41.6,30.03,South,180,0.2,1.3,86,0.00,,,0.02,WUHU216HW,2013-02-21 07:19:00,
2013-02-20 23:24:00,45.7,41.8,30.04,SSW,203,0.2,1.1,86,0.00,,,0.02,WUHU216HW,2013-02-21 07:24:00,
2013-02-20 23:29:00,45.7,41.8,30.04,SW,225,0.7,1.1,86,0.00,,,0.02,WUHU216HW,2013-02-21 07:29:00,
2013-02-20 23:34:00,45.7,41.8,30.04,SSW,203,0.9,1.1,86,0.00,,,0.02,WUHU216HW,2013-02-21 07:34:00,
2013-02-20 23:39:00,45.5,41.6,30.04,WNW,293,2.2,2.2,86,0.00,,,0.02,WUHU216HW,2013-02-21 07:39:00,
2013-02-20 23:44:00,45.5,41.6,30.04,SSE,158,0.7,2.5,86,0.00,,,0.02,WUHU216HW,2013-02-21 07:44:00,
2013-02-20 23:49:00,45.5,41.6,30.03,ENE,68,0.9,2.5,86,0.00,,,0.02,WUHU216HW,2013-02-21 07:49:00,
2013-02-20 23:54:00,45.5,41.6,30.03,SSE,158,0.4,2.0,86,0.00,,,0.02,WUHU216HW,2013-02-21 07:54:00,
2013-02-20 23:59:00,45.4,41.4,30.03,SW,225,0.4,2.0,86,0.00,,,0.02,WUHU216HW,2013-02-21 07:59:00,